INFORMACIÓN METAR y TAF
METAR FOR ENTC
ADDS - METARS form results

(0235 UTC 03 October 2022)
Data provider http://aviationweather.gov/metar/data/
 
METAR text: ENTC 030220Z AUTO 05002KT 9999 OVC051/// 02/01 Q1007 RMK WIND 2600FT 23008KT
Conditions at: ENTC (TROMSO/LANGNES , NO) observed 0220 UTC 03 October 2022
Temperature: 2.0°C (36°F)
Dewpoint: 1.0°C (34°F) [RH = 93%]
Pressure (altimeter): 29.73 inches Hg (1007.0 mb)
Winds: from the NE (50 degrees) at 2 MPH (2 knots; 1.0 m/s)
Visibility: 6 or more miles (10+ km)
Ceiling: 5100 feet AGL
Clouds: overcast cloud deck at 5100 feet AGL
Weather: no significant weather observed at this time

METAR text: ENTC 030150Z AUTO VRB02KT 9999 OVC053/// 02/01 Q1007 RMK WIND 2600FT 24008KT
Conditions at: ENTC (TROMSO/LANGNES , NO) observed 0150 UTC 03 October 2022
Temperature: 2.0°C (36°F)
Dewpoint: 1.0°C (34°F) [RH = 93%]
Pressure (altimeter): 29.73 inches Hg (1007.0 mb)
Winds: variable direction winds at 2 MPH (2 knots; 1.0 m/s)
Visibility: 6 or more miles (10+ km)
Ceiling: 5300 feet AGL
Clouds: overcast cloud deck at 5300 feet AGL
Weather: no significant weather observed at this time

Forecast for: ENTC (TROMSO/LANGNES , NO)
Text: TAF ENTC 0300/0324 VRB03KT 9999 SCT040
Forecast period: 0000 UTC 03 October 2022 to 0000 UTC 04 October 2022
Forecast type: FROM: standard forecast or significant change
Winds: variable direction winds at 3 MPH (3 knots; 1.5 m/s)
Visibility: 6 or more miles (10+ km)
Ceiling: at least 12,000 feet AGL
Clouds: scattered clouds at 4000 feet AGL
Weather: no significant weather forecast for this period
Text: PROB30
Forecast period: 1300 to 1800 UTC 03 October 2022
Forecast type: TEMPORARY: The following changes expected for less than half the time period
Visibility: missing
Ceiling: 1400 feet AGL
Clouds: broken clouds at 1400 feet AGL
Weather: SHRA  (rain showers)

 MAPA DE AEROPUERTO

 INFORMACIÓN DE PISTA